createdAt,value
2022-10-11T00:01:33.256Z,100893.72
2022-10-11T00:04:35.965Z,100902.59
2022-10-11T00:07:39.143Z,100891.37
2022-10-11T00:10:41.804Z,100894.28
2022-10-11T00:13:44.351Z,100890.13
2022-10-11T00:16:46.916Z,100901.94
2022-10-11T00:19:49.503Z,100896.44
2022-10-11T00:22:52.105Z,100898.53
2022-10-11T00:25:59.546Z,100895.78
2022-10-11T00:29:02.133Z,100897.75
2022-10-11T00:32:05.559Z,100890.97
2022-10-11T00:35:08.840Z,100892.78
2022-10-11T00:38:14.570Z,100893.75
2022-10-11T00:41:17.348Z,100887.28
2022-10-11T00:44:23.074Z,100883.28
2022-10-11T00:47:25.673Z,100887.72
2022-10-11T00:50:30.808Z,100887.72
2022-10-11T00:53:34.210Z,100886.06
2022-10-11T00:56:38.764Z,100876.38
2022-10-11T00:59:45.089Z,100872.75
2022-10-11T01:02:47.621Z,100877.03
2022-10-11T01:05:50.177Z,100875.41
2022-10-11T01:08:53.792Z,100879.00
2022-10-11T01:12:00.227Z,100872.09
2022-10-11T01:15:21.595Z,100878.16
2022-10-11T01:18:49.608Z,100879.28
2022-10-11T01:22:23.499Z,100890.91
2022-10-11T01:25:32.953Z,100886.22
2022-10-11T01:28:48.554Z,100882.91
2022-10-11T01:32:15.490Z,100888.47
2022-10-11T01:35:21.114Z,100886.81
2022-10-11T01:38:31.179Z,100881.69
2022-10-11T01:41:47.227Z,100873.41
2022-10-11T01:44:51.033Z,100878.97
2022-10-11T01:48:11.326Z,100867.78
2022-10-11T01:51:14.273Z,100866.25
2022-10-11T01:54:49.773Z,100865.44
2022-10-11T01:58:12.652Z,100870.69
2022-10-11T02:01:20.393Z,100873.16
2022-10-11T02:04:55.081Z,100867.37
2022-10-11T02:08:26.924Z,100870.97
2022-10-11T02:11:31.694Z,100870.84
2022-10-11T02:14:40.915Z,100878.84
2022-10-11T02:17:57.185Z,100883.28
2022-10-11T02:21:02.884Z,100882.31
2022-10-11T02:24:32.229Z,100876.91
2022-10-11T02:27:38.838Z,100882.16
2022-10-11T02:30:42.508Z,100885.78
2022-10-11T02:34:00.506Z,100890.59
2022-10-11T02:37:36.109Z,100891.56
2022-10-11T02:40:42.464Z,100888.66
2022-10-11T02:43:57.714Z,100892.78
2022-10-11T02:47:00.762Z,100888.50
2022-10-11T02:50:03.792Z,100886.69
2022-10-11T02:53:06.853Z,100876.34
2022-10-11T02:56:09.521Z,100876.19
2022-10-11T02:59:12.064Z,100876.34
2022-10-11T03:02:14.723Z,100874.69
2022-10-11T03:05:17.293Z,100888.34
2022-10-11T03:08:20.084Z,100890.00
2022-10-11T03:11:22.673Z,100884.06
2022-10-11T03:14:25.297Z,100894.44
2022-10-11T03:17:36.954Z,100892.78
2022-10-11T03:20:42.740Z,100894.28
2022-10-11T03:23:45.257Z,100897.59
2022-10-11T03:26:47.991Z,100892.66
2022-10-11T03:29:50.519Z,100907.72
2022-10-11T03:32:55.956Z,100910.34
2022-10-11T03:35:58.514Z,100907.87
2022-10-11T03:39:01.145Z,100907.03
2022-10-11T03:42:04.038Z,100910.22
2022-10-11T03:45:08.471Z,100912.97
2022-10-11T03:48:11.574Z,100914.94
2022-10-11T03:51:15.219Z,100916.72
2022-10-11T03:54:17.796Z,100906.06
2022-10-11T03:57:20.628Z,100916.72
2022-10-11T04:00:23.228Z,100914.38
2022-10-11T04:03:26.268Z,100912.44
2022-10-11T04:06:28.785Z,100915.91
2022-10-11T04:09:31.472Z,100927.81
2022-10-11T04:12:34.538Z,100923.53
2022-10-11T04:15:38.460Z,100918.28
2022-10-11T04:18:43.889Z,100932.66
2022-10-11T04:21:46.457Z,100923.12
2022-10-11T04:24:49.083Z,100929.50
2022-10-11T04:27:51.637Z,100939.03
2022-10-11T04:30:54.268Z,100941.81
2022-10-11T04:33:57.372Z,100942.63
2022-10-11T04:37:00.002Z,100945.41
2022-10-11T04:40:02.812Z,100944.44
2022-10-11T04:43:05.661Z,100943.75
2022-10-11T04:46:09.044Z,100944.72
2022-10-11T04:49:12.106Z,100942.09
2022-10-11T04:52:14.696Z,100938.78
2022-10-11T04:55:17.302Z,100941.41
2022-10-11T04:58:20.056Z,100932.84
2022-10-11T05:01:22.629Z,100937.94
2022-10-11T05:04:25.262Z,100941.25
2022-10-11T05:07:27.914Z,100939.47
2022-10-11T05:10:31.824Z,100939.19
2022-10-11T05:13:35.903Z,100950.38
2022-10-11T05:16:38.663Z,100944.69
2022-10-11T05:19:42.205Z,100951.19
2022-10-11T05:22:47.795Z,100954.22
2022-10-11T05:25:50.326Z,100952.25
2022-10-11T05:28:56.015Z,100947.41
2022-10-11T05:31:58.677Z,100957.06
2022-10-11T05:35:04.560Z,100962.03
2022-10-11T05:38:07.163Z,100966.59
2022-10-11T05:41:12.099Z,100966.16
2022-10-11T05:44:14.623Z,100968.22
2022-10-11T05:47:17.209Z,100964.03
2022-10-11T05:50:24.019Z,100974.81
2022-10-11T05:53:27.109Z,100968.97
2022-10-11T05:56:29.723Z,100983.34
2022-10-11T05:59:32.256Z,100979.72
2022-10-11T06:02:35.274Z,100978.00
2022-10-11T06:05:38.031Z,100989.44
2022-10-11T06:08:40.704Z,100997.44
2022-10-11T06:11:46.401Z,101005.12
2022-10-11T06:14:49.068Z,101008.69
2022-10-11T06:17:54.925Z,101011.94
2022-10-11T06:21:00.545Z,101012.31
2022-10-11T06:24:03.273Z,101016.69
2022-10-11T06:27:06.028Z,101017.88
2022-10-11T06:30:09.525Z,101015.47
2022-10-11T06:33:12.037Z,101017.38
2022-10-11T06:36:15.574Z,101024.53
2022-10-11T06:39:18.149Z,101027.37
2022-10-11T06:42:20.794Z,101035.19
2022-10-11T06:45:23.417Z,101035.41
2022-10-11T06:48:26.241Z,101039.44
2022-10-11T06:51:30.315Z,101043.34
2022-10-11T06:54:33.045Z,101042.50
2022-10-11T06:57:36.311Z,101046.22
2022-10-11T07:00:39.695Z,101041.03
2022-10-11T07:03:43.242Z,101044.09
2022-10-11T07:06:45.899Z,101044.84
2022-10-11T07:09:48.409Z,101048.84
2022-10-11T07:12:51.004Z,101039.12
2022-10-11T07:15:53.966Z,101044.59
2022-10-11T07:19:00.780Z,101056.03
2022-10-11T07:22:03.702Z,101054.37
2022-10-11T07:25:07.042Z,101055.94
2022-10-11T07:28:10.198Z,101053.44
2022-10-11T07:31:17.127Z,101055.25
2022-10-11T07:34:20.944Z,101062.81
2022-10-11T07:37:23.581Z,101062.31
2022-10-11T07:40:33.876Z,101066.28
2022-10-11T07:43:37.649Z,101071.06
2022-10-11T07:46:40.539Z,101067.81
2022-10-11T07:49:43.364Z,101068.25
2022-10-11T07:52:45.888Z,101059.34
2022-10-11T07:55:48.488Z,101068.28
2022-10-11T07:58:52.971Z,101082.19
2022-10-11T08:01:55.636Z,101085.97
2022-10-11T08:04:58.251Z,101083.84
2022-10-11T08:08:00.883Z,101084.75
2022-10-11T08:11:04.018Z,101080.31
2022-10-11T08:14:09.136Z,101081.37
2022-10-11T08:17:12.281Z,101083.19
2022-10-11T08:20:14.917Z,101081.72
2022-10-11T08:23:18.701Z,101085.22
2022-10-11T08:26:21.570Z,101085.22
2022-10-11T08:29:24.494Z,101092.88
2022-10-11T08:32:27.043Z,101091.31
2022-10-11T08:35:29.726Z,101086.44
2022-10-11T08:38:32.900Z,101090.28
2022-10-11T08:41:48.612Z,101091.31
2022-10-11T08:45:10.526Z,101087.56
2022-10-11T08:48:47.406Z,101089.78
2022-10-11T08:52:00.303Z,101093.69
2022-10-11T08:55:12.422Z,101091.75
2022-10-11T08:58:22.691Z,101095.53
2022-10-11T09:01:32.165Z,101091.41
2022-10-11T09:04:37.877Z,101080.41
2022-10-11T09:07:57.799Z,101088.66
2022-10-11T09:11:21.844Z,101081.41
2022-10-11T09:14:27.704Z,101090.87
2022-10-11T09:17:52.183Z,101088.50
2022-10-11T09:21:00.849Z,101092.50
2022-10-11T09:24:13.051Z,101090.75
2022-10-11T09:27:37.838Z,101086.62
2022-10-11T09:30:51.397Z,101084.66
2022-10-11T09:33:54.146Z,101087.69
2022-10-11T09:37:04.923Z,101097.19
2022-10-11T09:40:31.409Z,101104.94
2022-10-11T09:43:34.473Z,101110.44
2022-10-11T09:46:40.937Z,101112.34
2022-10-11T09:50:01.718Z,101121.72
2022-10-11T09:53:05.527Z,101116.25
2022-10-11T09:56:08.736Z,101110.63
2022-10-11T09:59:32.477Z,101103.91
2022-10-11T10:02:47.170Z,101099.34
2022-10-11T10:06:05.368Z,101110.28
2022-10-11T10:09:20.377Z,101108.41
2022-10-11T10:12:26.613Z,101102.41
2022-10-11T10:15:39.851Z,101097.25
2022-10-11T10:18:47.878Z,101091.00
2022-10-11T10:21:52.948Z,101085.91
2022-10-11T10:25:00.956Z,101091.44
2022-10-11T10:28:19.719Z,101088.94
2022-10-11T10:31:25.073Z,101082.88
2022-10-11T10:34:32.291Z,101079.81
2022-10-11T10:38:10.656Z,101076.69
2022-10-11T10:41:14.417Z,101080.44
2022-10-11T10:44:17.073Z,101083.41
2022-10-11T10:47:34.435Z,101086.22
2022-10-11T10:50:58.325Z,101092.00
2022-10-11T10:54:11.107Z,101079.75
2022-10-11T10:57:21.237Z,101073.12
2022-10-11T11:00:24.835Z,101076.63
2022-10-11T11:03:59.963Z,101073.84
2022-10-11T11:07:11.810Z,101070.50
2022-10-11T11:10:22.232Z,101084.50
2022-10-11T11:13:44.850Z,101074.03
2022-10-11T11:17:18.667Z,101072.13
2022-10-11T11:20:32.425Z,101077.97
2022-10-11T11:23:42.773Z,101073.12
2022-10-11T11:27:04.519Z,101072.06
2022-10-11T11:30:12.557Z,101068.22
2022-10-11T11:33:40.196Z,101072.38
2022-10-11T11:36:50.330Z,101070.59
2022-10-11T11:39:58.175Z,101061.44
2022-10-11T11:43:26.673Z,101066.50
2022-10-11T11:46:38.853Z,101061.91
2022-10-11T11:49:58.552Z,101060.06
2022-10-11T11:53:05.277Z,101058.59
2022-10-11T11:56:14.801Z,101053.25
2022-10-11T11:59:47.889Z,101051.19
2022-10-11T12:02:57.431Z,101053.00
2022-10-11T12:06:12.284Z,101058.41
2022-10-11T12:09:18.045Z,101061.53
2022-10-11T12:12:37.316Z,101054.56
2022-10-11T12:15:40.282Z,101055.25
2022-10-11T12:18:52.224Z,101052.19
2022-10-11T12:22:17.233Z,101049.75
2022-10-11T12:25:22.864Z,101045.75
2022-10-11T12:28:42.237Z,101051.72
2022-10-11T12:31:58.993Z,101052.00
2022-10-11T12:35:33.673Z,101046.72
2022-10-11T12:38:38.663Z,101033.66
2022-10-11T12:42:08.671Z,101043.16
2022-10-11T12:45:11.224Z,101046.69
2022-10-11T12:48:30.196Z,101038.03
2022-10-11T12:52:01.439Z,101035.84
2022-10-11T12:55:23.728Z,101032.53
2022-10-11T12:58:29.190Z,101037.88
2022-10-11T13:01:48.740Z,101033.37
2022-10-11T13:04:51.794Z,101035.78
2022-10-11T13:07:58.310Z,101032.44
2022-10-11T13:11:11.006Z,101030.88
2022-10-11T13:14:23.378Z,101026.94
2022-10-11T13:17:37.271Z,101031.00
2022-10-11T13:20:42.530Z,101026.47
2022-10-11T13:23:45.330Z,101024.13
2022-10-11T13:26:51.141Z,101030.97
2022-10-11T13:29:56.693Z,101033.16
2022-10-11T13:33:01.850Z,101031.62
2022-10-11T13:36:11.070Z,101025.22
2022-10-11T13:39:31.119Z,101032.38
2022-10-11T13:42:34.369Z,101027.84
2022-10-11T13:45:39.254Z,101023.25
2022-10-11T13:48:41.913Z,101031.47
2022-10-11T13:51:44.974Z,101027.56
2022-10-11T13:54:55.357Z,101033.44
2022-10-11T13:58:00.336Z,101029.87
2022-10-11T14:01:06.479Z,101025.75
2022-10-11T14:04:15.681Z,101027.59
2022-10-11T14:07:26.268Z,101021.75
2022-10-11T14:10:29.764Z,101016.44
2022-10-11T14:13:47.161Z,101027.75
2022-10-11T14:17:22.881Z,101020.06
2022-10-11T14:20:35.176Z,101024.22
2022-10-11T14:23:38.246Z,101018.44
2022-10-11T14:27:04.177Z,101015.47
2022-10-11T14:30:25.163Z,101008.59
2022-10-11T14:33:28.933Z,101016.59
2022-10-11T14:36:31.873Z,101010.84
2022-10-11T14:39:34.571Z,101009.72
2022-10-11T14:42:37.919Z,101012.47
2022-10-11T14:45:40.550Z,101010.69
2022-10-11T14:48:55.019Z,101019.72
2022-10-11T14:51:59.240Z,101013.50
2022-10-11T14:55:02.360Z,101019.69
2022-10-11T14:58:05.986Z,101015.84
2022-10-11T15:01:15.495Z,101023.75
2022-10-11T15:04:19.031Z,101024.03
2022-10-11T15:07:21.646Z,101021.13
2022-10-11T15:10:26.746Z,101028.47
2022-10-11T15:13:29.530Z,101026.22
2022-10-11T15:16:33.042Z,101023.81
2022-10-11T15:19:35.809Z,101021.38
2022-10-11T15:22:38.289Z,101029.84
2022-10-11T15:25:41.517Z,101035.28
2022-10-11T15:28:44.284Z,101043.31
2022-10-11T15:31:47.038Z,101037.22
2022-10-11T15:34:49.613Z,101033.16
2022-10-11T15:37:55.121Z,101033.19
2022-10-11T15:40:59.553Z,101040.28
2022-10-11T15:44:02.211Z,101038.16
2022-10-11T15:47:05.384Z,101035.78
2022-10-11T15:50:34.348Z,101040.19
2022-10-11T15:53:37.120Z,101040.44
2022-10-11T15:56:40.073Z,101050.19
2022-10-11T15:59:56.048Z,101051.91
2022-10-11T16:03:04.199Z,101052.94
2022-10-11T16:06:07.566Z,101052.25
2022-10-11T16:09:14.708Z,101048.28
2022-10-11T16:12:20.698Z,101050.47
2022-10-11T16:15:24.725Z,101059.12
2022-10-11T16:18:35.098Z,101062.81
2022-10-11T16:21:38.507Z,101062.62
2022-10-11T16:24:41.170Z,101068.56
2022-10-11T16:27:47.248Z,101068.34
2022-10-11T16:30:51.044Z,101077.56
2022-10-11T16:33:55.555Z,101077.09
2022-10-11T16:37:01.374Z,101079.88
2022-10-11T16:40:09.598Z,101080.84
2022-10-11T16:43:12.243Z,101088.78
2022-10-11T16:46:14.868Z,101086.00
2022-10-11T16:49:23.445Z,101084.78
2022-10-11T16:52:27.063Z,101089.59
2022-10-11T16:55:30.074Z,101084.44
2022-10-11T16:58:33.018Z,101086.22
2022-10-11T17:01:35.729Z,101095.38
2022-10-11T17:04:38.489Z,101106.41
2022-10-11T17:07:41.104Z,101099.75
2022-10-11T17:10:47.544Z,101104.75
2022-10-11T17:14:05.889Z,101108.94
2022-10-11T17:17:44.332Z,101112.16
2022-10-11T17:21:14.587Z,101112.03
2022-10-11T17:24:19.791Z,101113.72
2022-10-11T17:27:25.738Z,101117.91
2022-10-11T17:30:32.945Z,101115.59
2022-10-11T17:37:31.190Z,101116.78
2022-10-11T17:40:51.789Z,101119.09
2022-10-11T17:44:19.937Z,101118.59
2022-10-11T17:47:35.008Z,101116.13
2022-10-11T17:50:54.177Z,101107.94
2022-10-11T17:54:06.663Z,101115.88
2022-10-11T17:57:15.144Z,101111.56
2022-10-11T18:00:20.383Z,101116.69
2022-10-11T18:03:28.673Z,101118.66
2022-10-11T18:06:38.387Z,101104.56
2022-10-11T18:09:50.166Z,101114.13
2022-10-11T18:13:07.475Z,101113.78
2022-10-11T18:16:14.425Z,101117.38
2022-10-11T18:19:18.501Z,101119.00
2022-10-11T18:22:21.609Z,101115.34
2022-10-11T18:25:24.376Z,101119.06
2022-10-11T18:28:27.291Z,101114.56
2022-10-11T18:31:31.298Z,101117.00
2022-10-11T18:34:35.377Z,101116.50
2022-10-11T18:37:38.467Z,101119.25
2022-10-11T18:40:50.956Z,101121.84
2022-10-11T18:44:01.792Z,101118.97
2022-10-11T18:47:04.621Z,101120.56
2022-10-11T18:50:08.049Z,101119.38
2022-10-11T18:53:12.804Z,101120.84
2022-10-11T18:56:17.328Z,101121.72
2022-10-11T18:59:20.726Z,101122.03
2022-10-11T19:02:23.432Z,101126.25
2022-10-11T19:05:29.180Z,101119.38
2022-10-11T19:08:32.644Z,101110.12
2022-10-11T19:11:35.460Z,101117.81
2022-10-11T19:14:38.537Z,101125.66
2022-10-11T19:17:44.502Z,101117.97
2022-10-11T19:20:50.709Z,101112.63
2022-10-11T19:23:55.514Z,101117.75
2022-10-11T19:27:02.523Z,101129.88
2022-10-11T19:30:06.468Z,101127.66
2022-10-11T19:33:11.655Z,101127.25
2022-10-11T19:36:14.694Z,101132.16
2022-10-11T19:39:20.821Z,101126.50
2022-10-11T19:42:23.480Z,101127.31
2022-10-11T19:45:26.305Z,101139.28
2022-10-11T19:48:29.984Z,101134.59
2022-10-11T19:51:35.419Z,101140.16
2022-10-11T19:54:39.255Z,101129.53
2022-10-11T19:57:42.324Z,101129.25
2022-10-11T20:00:45.220Z,101129.41
2022-10-11T20:03:52.787Z,101136.22
2022-10-11T20:06:55.502Z,101129.47
2022-10-11T20:09:58.228Z,101142.75
2022-10-11T20:13:00.838Z,101142.66
2022-10-11T20:16:11.626Z,101149.19
2022-10-11T20:19:14.404Z,101152.53
2022-10-11T20:22:17.051Z,101148.53
2022-10-11T20:25:25.161Z,101149.78
2022-10-11T20:28:29.226Z,101151.87
2022-10-11T20:31:33.497Z,101149.78
2022-10-11T20:34:39.610Z,101140.78
2022-10-11T20:37:45.407Z,101145.22
2022-10-11T20:40:48.032Z,101148.00
2022-10-11T20:43:55.654Z,101152.13
2022-10-11T20:47:03.022Z,101160.75
2022-10-11T20:50:07.078Z,101161.44
2022-10-11T20:53:16.162Z,101161.16
2022-10-11T20:56:20.785Z,101160.31
2022-10-11T20:59:23.558Z,101165.28
2022-10-11T21:02:26.167Z,101161.41
2022-10-11T21:05:29.122Z,101170.28
2022-10-11T21:08:34.995Z,101160.31
2022-10-11T21:11:37.831Z,101154.91
2022-10-11T21:14:40.855Z,101165.16
2022-10-11T21:17:43.427Z,101162.94
2022-10-11T21:20:46.331Z,101166.97
2022-10-11T21:23:48.922Z,101156.56
2022-10-11T21:26:51.574Z,101154.09
2022-10-11T21:29:54.116Z,101152.44
2022-10-11T21:32:57.690Z,101153.41
2022-10-11T21:36:04.349Z,101159.50
2022-10-11T21:39:07.137Z,101161.16
2022-10-11T21:42:10.687Z,101162.25
2022-10-11T21:45:13.449Z,101168.91
2022-10-11T21:48:16.275Z,101156.31
2022-10-11T21:51:30.626Z,101162.56
2022-10-11T21:54:33.213Z,101154.66
2022-10-11T21:57:35.895Z,101156.56
2022-10-11T22:00:38.499Z,101156.72
2022-10-11T22:03:41.071Z,101155.34
2022-10-11T22:06:43.747Z,101155.75
2022-10-11T22:09:46.367Z,101150.78
2022-10-11T22:12:48.988Z,101150.75
2022-10-11T22:15:51.826Z,101140.09
2022-10-11T22:18:54.664Z,101149.78
2022-10-11T22:21:57.271Z,101148.69
2022-10-11T22:24:59.849Z,101144.50
2022-10-11T22:28:02.610Z,101140.91
2022-10-11T22:31:05.797Z,101141.72
2022-10-11T22:34:08.425Z,101139.63
2022-10-11T22:37:11.129Z,101140.31
2022-10-11T22:40:13.725Z,101143.62
2022-10-11T22:43:16.625Z,101148.91
2022-10-11T22:46:19.260Z,101146.13
2022-10-11T22:49:22.029Z,101150.56
2022-10-11T22:52:24.677Z,101151.69
2022-10-11T22:55:27.283Z,101146.25
2022-10-11T22:58:29.921Z,101138.09
2022-10-11T23:01:32.674Z,101145.16
2022-10-11T23:04:35.254Z,101132.66
2022-10-11T23:07:40.906Z,101138.63
2022-10-11T23:10:43.554Z,101141.94
2022-10-11T23:13:46.319Z,101142.09
2022-10-11T23:16:52.602Z,101140.69
2022-10-11T23:19:55.490Z,101132.63
2022-10-11T23:22:58.123Z,101138.47
2022-10-11T23:26:11.561Z,101137.34
2022-10-11T23:29:14.148Z,101146.22
2022-10-11T23:32:16.891Z,101146.91
2022-10-11T23:35:19.509Z,101152.31
2022-10-11T23:38:22.288Z,101148.72
2022-10-11T23:41:26.908Z,101145.94
2022-10-11T23:44:32.568Z,101153.84
2022-10-11T23:47:35.530Z,101149.69
2022-10-11T23:50:38.393Z,101157.97
2022-10-11T23:53:40.997Z,101152.91
2022-10-11T23:56:46.604Z,101164.81
2022-10-11T23:59:49.270Z,101160.91
